Terminal Aerodrome Forecast
Issued by NWS

Home | Current Version | Previous Version | Text Only | Print | Product List | Glossary On
Versions: 1 2 3 4 5 6 7 8 9 10 11 12 13
000
FTUS41 KBTV 242340
TAFRUT
TAF
KRUT 242340Z 2500/2524 13009KT P6SM BKN150 BKN200
     FM251400 15012G20KT P6SM SCT050 SCT150 BKN200
     FM251700 16015G25KT P6SM BKN035
     FM252200 15018G28KT 3SM +RA BR OVC020=

USA.gov is the U.S. government's official web portal to all federal, state and local government web resources and services.